createdAt,value
2019-04-24T00:03:00.410Z,9.50
2019-04-24T00:05:52.287Z,8.33
2019-04-24T00:08:16.012Z,10.23
2019-04-24T00:11:08.325Z,7.30
2019-04-24T00:13:35.702Z,8.13
2019-04-24T00:16:15.530Z,10.98
2019-04-24T00:19:19.680Z,10.28
2019-04-24T00:21:38.064Z,9.83
2019-04-24T00:27:01.477Z,7.75
2019-04-24T00:31:49.446Z,10.95
2019-04-24T00:36:58.526Z,13.35
2019-04-24T00:39:34.846Z,13.30
2019-04-24T00:44:16.623Z,8.88
2019-04-24T00:47:16.598Z,12.82
2019-04-24T00:49:32.190Z,10.30
2019-04-24T00:51:59.088Z,11.70
2019-04-24T00:54:24.461Z,8.70
2019-04-24T00:57:06.706Z,7.05
2019-04-24T00:59:36.422Z,13.13
2019-04-24T01:02:31.963Z,9.00
2019-04-24T01:08:22.845Z,10.72
2019-04-24T01:11:08.795Z,8.70
2019-04-24T01:16:21.707Z,12.28
2019-04-24T01:18:44.809Z,10.80
2019-04-24T01:21:22.445Z,11.05
2019-04-24T01:23:49.787Z,10.63
2019-04-24T01:26:24.011Z,15.78
2019-04-24T01:34:10.303Z,13.25
2019-04-24T01:36:49.584Z,13.30
2019-04-24T01:42:20.757Z,9.20
2019-04-24T01:44:50.713Z,20.12
2019-04-24T01:47:21.738Z,11.00
2019-04-24T01:50:00.762Z,8.93
2019-04-24T01:54:50.729Z,12.40
2019-04-24T02:02:34.737Z,9.73
2019-04-24T02:05:00.320Z,10.93
2019-04-24T02:07:43.346Z,13.85
2019-04-24T02:13:10.976Z,10.78
2019-04-24T02:15:28.858Z,11.40
2019-04-24T02:17:58.233Z,10.48
2019-04-24T02:20:37.135Z,9.63
2019-04-24T02:23:08.945Z,10.75
2019-04-24T02:28:18.666Z,14.63
2019-04-24T02:33:51.357Z,11.05
2019-04-24T02:39:34.657Z,10.20
2019-04-24T02:47:13.962Z,10.98
2019-04-24T02:49:52.067Z,12.95
2019-04-24T02:57:26.231Z,8.95
2019-04-24T03:02:39.419Z,10.70
2019-04-24T03:07:47.686Z,8.85
2019-04-24T03:15:45.102Z,11.05
2019-04-24T03:26:35.091Z,7.97
2019-04-24T03:28:34.735Z,12.23
2019-04-24T03:33:43.292Z,12.70
2019-04-24T03:48:56.874Z,15.20
2019-04-24T03:52:03.097Z,10.95
2019-04-24T03:56:35.134Z,8.40
2019-04-24T04:05:20.568Z,10.23
2019-04-24T04:07:40.349Z,7.92
2019-04-24T04:10:21.791Z,10.80
2019-04-24T04:15:08.675Z,7.53
2019-04-24T04:20:26.357Z,11.15
2019-04-24T04:26:02.258Z,9.40
2019-04-24T04:31:07.525Z,8.20
2019-04-24T04:34:05.101Z,9.03
2019-04-24T04:36:23.305Z,16.25
2019-04-24T04:38:51.978Z,7.65
2019-04-24T04:44:17.089Z,9.98
2019-04-24T04:49:50.581Z,8.28
2019-04-24T04:52:10.100Z,11.25
2019-04-24T04:57:18.608Z,8.28
2019-04-24T05:05:26.009Z,8.83
2019-04-24T05:07:40.493Z,7.53
2019-04-24T05:12:47.015Z,10.80
2019-04-24T05:17:57.138Z,11.88
2019-04-24T05:20:15.608Z,14.13
2019-04-24T05:22:32.371Z,10.80
2019-04-24T05:25:36.409Z,9.88
2019-04-24T05:27:51.560Z,9.15
2019-04-24T05:30:32.260Z,11.38
2019-04-24T05:35:47.196Z,16.20
2019-04-24T05:38:45.297Z,6.83
2019-04-24T05:41:01.475Z,7.08
2019-04-24T05:43:52.886Z,13.72
2019-04-24T05:46:16.659Z,9.23
2019-04-24T05:48:50.909Z,9.10
2019-04-24T05:51:36.370Z,8.08
2019-04-24T05:54:26.555Z,7.62
2019-04-24T05:57:25.313Z,13.45
2019-04-24T05:59:45.420Z,8.73
2019-04-24T06:02:26.175Z,6.92
2019-04-24T06:04:52.047Z,10.78
2019-04-24T06:07:52.463Z,7.08
2019-04-24T06:10:21.805Z,5.85
2019-04-24T06:13:35.766Z,7.17
2019-04-24T06:16:26.449Z,8.75
2019-04-24T06:21:55.203Z,6.08
2019-04-24T06:24:21.442Z,13.15
2019-04-24T06:26:56.659Z,8.68
2019-04-24T06:34:49.729Z,7.85
2019-04-24T06:40:20.583Z,11.83
2019-04-24T06:42:57.799Z,4.55
2019-04-24T06:53:00.986Z,7.92
2019-04-24T07:12:09.587Z,6.87
2019-04-24T07:14:51.937Z,8.73
2019-04-24T07:19:55.933Z,7.47
2019-04-24T07:23:09.739Z,8.95
2019-04-24T07:28:32.317Z,10.32
2019-04-24T07:31:41.082Z,7.30
2019-04-24T07:34:27.686Z,6.78
2019-04-24T07:36:52.858Z,9.70
2019-04-24T07:44:37.159Z,5.75
2019-04-24T07:49:46.069Z,7.83
2019-04-24T07:52:29.044Z,6.08
2019-04-24T07:54:59.575Z,6.12
2019-04-24T07:57:20.935Z,11.93
2019-04-24T08:03:09.428Z,9.45
2019-04-24T08:05:18.057Z,9.05
2019-04-24T08:08:15.334Z,5.28
2019-04-24T08:10:50.964Z,5.30
2019-04-24T08:16:04.851Z,5.72
2019-04-24T08:18:34.654Z,7.70
2019-04-24T08:28:50.233Z,8.15
2019-04-24T08:42:17.183Z,8.95
2019-04-24T08:47:36.062Z,9.00
2019-04-24T08:50:11.894Z,10.30
2019-04-24T08:52:47.835Z,7.50
2019-04-24T08:55:10.236Z,10.20
2019-04-24T08:58:08.664Z,5.33
2019-04-24T09:00:20.154Z,5.58
2019-04-24T09:03:26.069Z,6.50
2019-04-24T09:06:01.170Z,5.20
2019-04-24T09:08:43.092Z,8.10
2019-04-24T09:14:15.832Z,7.65
2019-04-24T09:16:37.534Z,10.03
2019-04-24T09:27:39.011Z,6.97
2019-04-24T09:35:38.488Z,5.03
2019-04-24T09:38:20.380Z,4.92
2019-04-24T09:43:47.868Z,10.43
2019-04-24T09:48:55.987Z,4.58
2019-04-24T10:02:28.090Z,9.10
2019-04-24T10:05:04.902Z,10.55
2019-04-24T10:07:29.837Z,3.90
2019-04-24T10:10:12.001Z,5.60
2019-04-24T10:15:39.447Z,5.95
2019-04-24T10:17:49.254Z,7.92
2019-04-24T10:20:22.604Z,4.95
2019-04-24T10:23:02.757Z,4.97
2019-04-24T10:25:40.544Z,4.53
2019-04-24T10:28:41.457Z,4.08
2019-04-24T10:31:18.974Z,5.28
2019-04-24T10:34:05.947Z,4.30
2019-04-24T10:42:18.018Z,5.25
2019-04-24T10:45:06.999Z,3.75
2019-04-24T10:48:00.648Z,5.85
2019-04-24T10:53:17.163Z,6.30
2019-04-24T10:55:55.511Z,5.25
2019-04-24T10:58:32.761Z,7.35
2019-04-24T11:01:12.596Z,4.97
2019-04-24T11:06:21.460Z,6.37
2019-04-24T11:09:17.040Z,5.17
2019-04-24T11:12:04.651Z,3.50
2019-04-24T11:14:22.998Z,6.12
2019-04-24T11:17:16.068Z,3.50
2019-04-24T11:22:19.151Z,3.55
2019-04-24T11:25:07.935Z,4.60
2019-04-24T11:27:27.756Z,6.90
2019-04-24T11:30:09.730Z,7.00
2019-04-24T11:32:57.647Z,8.85
2019-04-24T11:35:52.523Z,3.95
2019-04-24T11:38:47.781Z,4.62
2019-04-24T11:41:14.095Z,7.83
2019-04-24T11:43:50.447Z,4.62
2019-04-24T11:46:56.608Z,3.70
2019-04-24T11:49:22.613Z,5.03
2019-04-24T11:52:30.039Z,4.80
2019-04-24T11:55:10.069Z,3.85
2019-04-24T11:57:43.601Z,4.85
2019-04-24T11:59:45.123Z,8.38
2019-04-24T12:02:45.573Z,4.97
2019-04-24T12:10:33.552Z,5.80
2019-04-24T12:13:51.406Z,10.70
2019-04-24T12:16:11.020Z,6.22
2019-04-24T12:24:02.884Z,8.60
2019-04-24T12:26:35.336Z,4.75
2019-04-24T12:29:07.514Z,3.58
2019-04-24T12:34:28.953Z,5.15
2019-04-24T12:37:14.206Z,9.65
2019-04-24T12:39:41.805Z,4.55
2019-04-24T12:42:25.434Z,5.28
2019-04-24T12:44:46.359Z,4.15
2019-04-24T12:47:27.961Z,7.03
2019-04-24T12:50:07.447Z,4.37
2019-04-24T12:52:27.785Z,2.60
2019-04-24T12:55:16.046Z,4.17
2019-04-24T13:00:30.677Z,4.40
2019-04-24T13:03:28.876Z,3.83
2019-04-24T13:08:43.838Z,4.65
2019-04-24T13:11:07.835Z,6.35
2019-04-24T13:13:59.937Z,5.42
2019-04-24T13:16:21.629Z,2.87
2019-04-24T13:21:10.065Z,4.10
2019-04-24T13:23:51.679Z,4.25
2019-04-24T13:27:05.114Z,3.52
2019-04-24T13:29:52.572Z,4.90
2019-04-24T13:32:26.442Z,4.40
2019-04-24T13:35:11.729Z,2.25
2019-04-24T13:37:48.655Z,3.37
2019-04-24T13:40:02.979Z,3.47
2019-04-24T13:42:48.571Z,2.92
2019-04-24T13:45:17.078Z,3.52
2019-04-24T13:48:07.149Z,6.58
2019-04-24T13:50:30.623Z,8.10
2019-04-24T13:55:29.721Z,4.08
2019-04-24T13:58:10.133Z,2.67
2019-04-24T14:00:39.915Z,8.00
2019-04-24T14:05:48.766Z,5.67
2019-04-24T14:11:05.275Z,4.20
2019-04-24T14:15:53.433Z,4.00
2019-04-24T14:18:16.712Z,4.47
2019-04-24T14:21:20.722Z,4.17
2019-04-24T14:23:59.138Z,3.25
2019-04-24T14:26:26.535Z,5.90
2019-04-24T14:28:50.225Z,2.75
2019-04-24T14:34:04.660Z,5.75
2019-04-24T14:36:32.589Z,2.72
2019-04-24T14:39:14.513Z,3.67
2019-04-24T14:44:38.778Z,3.08
2019-04-24T14:47:29.200Z,3.83
2019-04-24T14:50:05.425Z,2.37
2019-04-24T14:52:29.442Z,2.95
2019-04-24T14:54:48.659Z,6.03
2019-04-24T15:00:02.053Z,5.60
2019-04-24T15:02:38.211Z,3.02
2019-04-24T15:05:05.837Z,4.37
2019-04-24T15:07:27.850Z,2.58
2019-04-24T15:09:58.475Z,2.70
2019-04-24T15:12:37.767Z,2.05
2019-04-24T15:15:22.086Z,4.42
2019-04-24T15:17:46.315Z,3.45
2019-04-24T15:20:15.611Z,3.95
2019-04-24T15:27:56.015Z,3.55
2019-04-24T15:30:14.647Z,4.47
2019-04-24T15:32:57.063Z,3.20
2019-04-24T15:35:29.210Z,2.77
2019-04-24T15:38:04.022Z,5.35
2019-04-24T15:40:41.857Z,6.80
2019-04-24T15:43:13.284Z,2.60
2019-04-24T15:45:37.131Z,3.90
2019-04-24T15:50:47.249Z,4.12
2019-04-24T15:52:40.470Z,3.95
2019-04-24T15:55:15.438Z,4.97
2019-04-24T15:57:45.903Z,3.20
2019-04-24T16:00:47.804Z,4.40
2019-04-24T16:03:38.070Z,2.75
2019-04-24T16:05:24.627Z,2.52
2019-04-24T16:08:01.213Z,2.27
2019-04-24T16:10:34.254Z,2.37
2019-04-24T16:13:17.364Z,3.67
2019-04-24T16:26:23.066Z,1.87
2019-04-24T16:29:10.204Z,3.27
2019-04-24T16:31:28.333Z,6.47
2019-04-24T16:36:37.735Z,6.10
2019-04-24T16:39:06.154Z,2.20
2019-04-24T16:42:03.786Z,2.20
2019-04-24T16:49:23.372Z,3.35
2019-04-24T16:51:56.922Z,2.90
2019-04-24T16:54:17.267Z,2.33
2019-04-24T16:56:47.854Z,4.58
2019-04-24T16:59:19.960Z,2.00
2019-04-24T17:07:02.773Z,2.12
2019-04-24T17:09:35.906Z,4.25
2019-04-24T17:14:52.588Z,2.75
2019-04-24T17:17:33.098Z,2.22
2019-04-24T17:20:02.992Z,3.55
2019-04-24T17:22:32.345Z,3.25
2019-04-24T17:25:01.164Z,1.90
2019-04-24T17:27:29.526Z,5.00
2019-04-24T17:30:15.017Z,4.42
2019-04-24T17:32:40.886Z,2.30
2019-04-24T17:35:13.243Z,3.80
2019-04-24T17:37:11.429Z,2.50
2019-04-24T17:39:50.240Z,3.17
2019-04-24T17:42:36.693Z,1.85
2019-04-24T17:45:22.130Z,5.40
2019-04-24T17:48:01.438Z,2.77
2019-04-24T17:50:21.780Z,6.58
2019-04-24T17:53:07.201Z,2.22
2019-04-24T18:00:10.620Z,4.08
2019-04-24T18:02:42.243Z,3.52
2019-04-24T18:05:13.144Z,5.25
2019-04-24T18:07:43.954Z,3.35
2019-04-24T18:10:15.935Z,2.95
2019-04-24T18:12:45.646Z,3.30
2019-04-24T18:15:15.271Z,4.22
2019-04-24T18:17:44.888Z,4.17
2019-04-24T18:20:14.590Z,10.05
2019-04-24T18:22:45.468Z,9.40
2019-04-24T18:25:32.846Z,4.12
2019-04-24T18:28:03.414Z,2.65
2019-04-24T18:30:34.139Z,2.50
2019-04-24T18:33:05.351Z,3.27
2019-04-24T18:35:38.972Z,5.05
2019-04-24T18:38:10.728Z,3.25
2019-04-24T18:40:39.300Z,3.65
2019-04-24T18:43:09.045Z,6.75
2019-04-24T18:45:42.103Z,2.50
2019-04-24T18:48:12.685Z,3.20
2019-04-24T18:50:43.315Z,3.15
2019-04-24T18:53:13.868Z,5.67
2019-04-24T18:55:43.725Z,3.72
2019-04-24T18:58:14.655Z,5.47
2019-04-24T19:00:45.864Z,3.22
2019-04-24T19:03:16.727Z,2.90
2019-04-24T19:05:46.844Z,2.42
2019-04-24T19:08:17.515Z,11.78
2019-04-24T19:10:51.363Z,2.40
2019-04-24T19:13:21.932Z,3.85
2019-04-24T19:15:53.315Z,2.15
2019-04-24T19:18:25.349Z,2.50
2019-04-24T19:20:55.027Z,3.30
2019-04-24T19:23:24.665Z,8.28
2019-04-24T19:25:54.310Z,3.05
2019-04-24T19:28:23.931Z,3.22
2019-04-24T19:30:53.896Z,3.70
2019-04-24T19:33:23.538Z,2.00
2019-04-24T19:35:53.149Z,3.33
2019-04-24T19:38:24.980Z,3.87
2019-04-24T19:40:54.214Z,3.00
2019-04-24T19:43:23.933Z,3.98
2019-04-24T19:45:53.669Z,4.58
2019-04-24T19:48:25.430Z,2.58
2019-04-24T19:50:56.362Z,2.25
2019-04-24T19:53:26.516Z,3.12
2019-04-24T19:55:56.365Z,3.85
2019-04-24T19:58:25.999Z,1.65
2019-04-24T20:00:55.972Z,4.65
2019-04-24T20:03:25.700Z,2.00
2019-04-24T20:05:55.392Z,2.77
2019-04-24T20:08:26.584Z,3.70
2019-04-24T20:11:04.051Z,2.30
2019-04-24T20:13:33.675Z,4.45
2019-04-24T20:16:03.473Z,2.17
2019-04-24T20:18:33.084Z,2.42
2019-04-24T20:21:02.704Z,1.92
2019-04-24T20:23:35.232Z,3.90
2019-04-24T20:26:05.164Z,3.35
2019-04-24T20:28:34.807Z,3.58
2019-04-24T20:31:04.817Z,2.70
2019-04-24T20:33:34.458Z,4.83
2019-04-24T20:36:04.245Z,1.62
2019-04-24T20:38:33.861Z,2.00
2019-04-24T20:41:04.137Z,7.35
2019-04-24T20:43:33.907Z,2.00
2019-04-24T20:46:03.614Z,2.85
2019-04-24T20:48:34.206Z,3.52
2019-04-24T20:51:03.884Z,3.80
2019-04-24T20:53:40.051Z,4.22
2019-04-24T20:56:04.956Z,1.55
2019-04-24T20:58:35.660Z,3.45
2019-04-24T21:01:07.460Z,4.75
2019-04-24T21:03:37.151Z,1.60
2019-04-24T21:06:42.039Z,1.85
2019-04-24T21:09:32.434Z,2.50
2019-04-24T21:12:03.595Z,3.55
2019-04-24T21:14:33.299Z,1.72
2019-04-24T21:17:02.926Z,1.95
2019-04-24T21:19:33.819Z,1.87
2019-04-24T21:22:05.346Z,3.33
2019-04-24T21:24:34.976Z,3.05
2019-04-24T21:27:04.740Z,3.55
2019-04-24T21:29:34.356Z,2.05
2019-04-24T21:32:05.607Z,2.08
2019-04-24T21:34:35.571Z,2.85
2019-04-24T21:37:05.278Z,1.70
2019-04-24T21:39:34.889Z,1.98
2019-04-24T21:42:04.640Z,2.87
2019-04-24T21:44:36.062Z,3.20
2019-04-24T21:47:05.663Z,2.00
2019-04-24T21:49:35.273Z,2.77
2019-04-24T21:52:05.146Z,4.20
2019-04-24T21:54:34.768Z,2.47
2019-04-24T21:57:04.558Z,1.75
2019-04-24T21:59:34.315Z,1.62
2019-04-24T22:02:29.819Z,2.45
2019-04-24T22:05:11.411Z,1.87
2019-04-24T22:07:44.439Z,2.15
2019-04-24T22:10:14.814Z,2.08
2019-04-24T22:12:45.090Z,4.00
2019-04-24T22:15:17.416Z,2.08
2019-04-24T22:17:47.044Z,1.75
2019-04-24T22:20:26.294Z,1.60
2019-04-24T22:23:19.834Z,2.83
2019-04-24T22:25:52.091Z,2.83
2019-04-24T22:28:22.152Z,4.47
2019-04-24T22:31:14.180Z,2.47
2019-04-24T22:33:49.062Z,2.62
2019-04-24T22:36:19.924Z,1.80
2019-04-24T22:38:59.174Z,1.80
2019-04-24T22:41:31.516Z,2.37
2019-04-24T22:44:01.957Z,2.00
2019-04-24T22:46:32.507Z,2.00
2019-04-24T22:49:03.086Z,1.90
2019-04-24T22:51:33.699Z,2.67
2019-04-24T22:54:06.837Z,2.02
2019-04-24T22:56:47.159Z,3.50
2019-04-24T22:59:07.787Z,1.65
2019-04-24T23:01:50.016Z,3.40
2019-04-24T23:04:12.762Z,3.05
2019-04-24T23:06:42.551Z,2.10
2019-04-24T23:09:24.421Z,5.72
2019-04-24T23:11:54.219Z,1.62
2019-04-24T23:14:24.100Z,11.25
2019-04-24T23:16:54.054Z,1.72
2019-04-24T23:19:23.913Z,1.60
2019-04-24T23:22:02.186Z,1.85
2019-04-24T23:24:48.059Z,2.77
2019-04-24T23:27:14.408Z,1.70
2019-04-24T23:29:51.593Z,2.05
2019-04-24T23:32:41.453Z,3.17
2019-04-24T23:35:11.966Z,1.95
2019-04-24T23:37:44.080Z,2.12
2019-04-24T23:40:12.927Z,1.80
2019-04-24T23:42:42.695Z,2.10
2019-04-24T23:45:12.962Z,5.65
2019-04-24T23:47:43.529Z,2.67
2019-04-24T23:50:16.004Z,2.02
2019-04-24T23:52:46.424Z,3.25
2019-04-24T23:55:16.134Z,1.72
2019-04-24T23:57:46.171Z,2.35
